Weather History for Grafton, ND

Change the Weather History Date:

Monday, December 3, 2012

  Actual Average Record
Temperature  
Mean Temperature 26 °F -  
Max Temperature 39 °F 24 °F 52 °F (1967)
Min Temperature 12 °F 7 °F -25 °F (1964)
Degree Days  
Heating Degree Days 40    
Moisture  
Dew Point 25 °F    
Average Humidity 83    
Maximum Humidity 100    
Minimum Humidity 67    
Precipitation  
Precipitation 0.00 in - - ()
Sea Level Pressure  
Sea Level Pressure 29.55 in    
Wind  
Wind Speed 15 mph (West)    
Max Wind Speed 36 mph    
Max Gust Speed 46 mph    
Visibility 9 miles    
Events Rain , Snow    
Averages and records for this station are not official NWS values.
T = Trace of Precipitation, MM = Missing Value Source: NWS Daily Summary

Daily Weather History Graph

Daily Weather History Graph

Search for Another Location

Airport:

Trip Planner

Search our weather history database for the weather conditions in past years. The results will help you decide how hot, cold, wet, or windy it might be!

Date:

Astronomy

Dec. 03, 2012 Rise Set
Actual Time 8:02 AM CST 4:35 PM CST
Civil Twilight 7:26 AM CST 5:12 PM CST
Nautical Twilight 6:47 AM CST 5:51 PM CST
Astronomical Twilight 6:09 AM CST 6:29 PM CST
Moon 9:37 PM CST (12/3) 11:15 AM CST (12/3)
Length of Visible Light 9h 45m
Length of Day
8h 33m
Waning Gibbous, 78% of the Moon is Illuminated
Dec 3
Waning Gibbous
Dec 6
Last Quarter
Dec 13
New
Dec 19
First Quarter
Dec 28
Full

Hourly Weather History & Observations

Time (CST) Temp. Windchill Dew Point Humidity Pressure Visibility Wind Dir Wind Speed Gust Speed Precip Events Conditions
12:15 AM 32.0 °F 22.5 °F 32.0 °F 100% 29.34 in 4.0 mi SSE 12.7 mph - N/A   Clear
12:35 AM 35.6 °F 29.2 °F 35.6 °F 100% 29.34 in 7.0 mi South 8.1 mph - N/A   Clear
12:55 AM 35.6 °F 29.2 °F 35.6 °F 100% 29.34 in 7.0 mi South 8.1 mph - N/A   Clear
1:15 AM 35.6 °F 29.2 °F 35.6 °F 100% 29.34 in 7.0 mi South 8.1 mph - N/A   Clear
1:35 AM 35.6 °F 29.2 °F 35.6 °F 100% 29.33 in 7.0 mi South 8.1 mph - N/A   Clear
1:55 AM 33.8 °F 26.4 °F 33.8 °F 100% 29.32 in 7.0 mi South 9.2 mph - N/A   Clear
2:15 AM 35.6 °F 29.9 °F 35.6 °F 100% 29.32 in 7.0 mi South 6.9 mph - N/A   Clear
2:35 AM 35.6 °F 29.2 °F 35.6 °F 100% 29.32 in 8.0 mi South 8.1 mph - N/A   Clear
2:55 AM 35.6 °F 29.2 °F 35.6 °F 100% 29.33 in 8.0 mi South 8.1 mph - N/A   Clear
3:15 AM 35.6 °F 29.2 °F 35.6 °F 100% 29.33 in 8.0 mi South 8.1 mph - N/A   Clear
3:35 AM 37.4 °F 32.1 °F 37.4 °F 100% 29.32 in 9.0 mi SSE 6.9 mph - N/A   Clear
3:55 AM 35.6 °F 29.2 °F 35.6 °F 100% 29.32 in 10.0 mi South 8.1 mph - N/A   Clear
4:15 AM 37.4 °F 30.8 °F 37.4 °F 100% 29.32 in 10.0 mi South 9.2 mph - N/A   Clear
4:35 AM 37.4 °F 32.1 °F 37.4 °F 100% 29.33 in 10.0 mi South 6.9 mph - N/A   Clear
4:55 AM 37.4 °F 32.1 °F 35.6 °F 93% 29.33 in 10.0 mi SSW 6.9 mph - N/A   Clear
5:15 AM 35.6 °F 29.9 °F 35.6 °F 100% 29.33 in 10.0 mi South 6.9 mph - N/A   Clear
5:35 AM 35.6 °F 30.7 °F 35.6 °F 100% 29.34 in 10.0 mi South 5.8 mph - N/A   Clear
5:55 AM 35.6 °F 29.9 °F 35.6 °F 100% 29.33 in 9.0 mi SW 6.9 mph - N/A Rain Light Rain
6:15 AM 37.4 °F 31.4 °F 35.6 °F 93% 29.35 in 10.0 mi WSW 8.1 mph - N/A   Clear
6:35 AM 39.2 °F 30.5 °F 35.6 °F 87% 29.35 in 10.0 mi NW 16.1 mph - N/A Rain Light Rain
6:55 AM 39.2 °F 31.2 °F 35.6 °F 87% 29.34 in 8.0 mi NNW 13.8 mph 21.9 mph N/A Rain Light Rain
7:15 AM 39.2 °F 29.8 °F 35.6 °F 87% 29.35 in 10.0 mi NW 18.4 mph 25.3 mph N/A Rain Light Rain
7:35 AM 37.4 °F 27.8 °F 35.6 °F 93% 29.36 in 10.0 mi NW 17.3 mph 25.3 mph N/A   Scattered Clouds
7:55 AM 37.4 °F 27.5 °F 35.6 °F 93% 29.39 in 7.0 mi NW 18.4 mph 27.6 mph N/A Rain Light Rain
8:15 AM 37.4 °F 29.8 °F 35.6 °F 93% 29.40 in 5.0 mi NW 11.5 mph 19.6 mph N/A Rain Light Rain
8:35 AM 37.4 °F 30.8 °F 37.4 °F 100% 29.40 in 5.0 mi West 9.2 mph - N/A Rain Light Rain
9:15 AM 39.2 °F 32.5 °F 37.4 °F 93% 29.43 in 4.0 mi WSW 10.4 mph - N/A Rain Light Rain
9:35 AM 37.4 °F 30.8 °F 37.4 °F 100% 29.43 in 5.0 mi West 9.2 mph - N/A Rain Light Rain
9:55 AM 37.4 °F 31.4 °F 35.6 °F 93% 29.45 in 8.0 mi West 8.1 mph - N/A Rain Light Rain
10:15 AM 37.4 °F 32.1 °F 35.6 °F 93% 29.47 in 10.0 mi WSW 6.9 mph - N/A   Scattered Clouds
10:35 AM 37.4 °F 31.4 °F 35.6 °F 93% 29.48 in 10.0 mi West 8.1 mph - N/A   Clear
10:55 AM 37.4 °F 29.3 °F 35.6 °F 93% 29.49 in 10.0 mi West 12.7 mph 16.1 mph N/A   Clear
11:15 AM 37.4 °F 27.8 °F 33.8 °F 87% 29.49 in 10.0 mi West 17.3 mph 20.7 mph N/A   Clear
11:35 AM 37.4 °F 27.5 °F 32.0 °F 81% 29.50 in 10.0 mi WNW 18.4 mph 25.3 mph N/A   Clear
11:55 AM 37.4 °F 26.9 °F 32.0 °F 81% 29.50 in 10.0 mi WNW 20.7 mph 25.3 mph N/A   Clear
12:15 PM 37.4 °F 27.5 °F 32.0 °F 81% 29.51 in 10.0 mi West 18.4 mph 27.6 mph N/A   Clear
12:35 PM 37.4 °F 27.8 °F 32.0 °F 81% 29.51 in 10.0 mi West 17.3 mph - N/A   Clear
1:15 PM 37.4 °F 26.4 °F 32.0 °F 81% 29.54 in 10.0 mi West 23.0 mph 35.7 mph N/A   Scattered Clouds
1:35 PM 37.4 °F 26.6 °F 30.2 °F 75% 29.55 in 10.0 mi West 21.9 mph 32.2 mph N/A   Mostly Cloudy
1:55 PM 37.4 °F 25.4 °F 28.4 °F 70% 29.56 in 10.0 mi West 27.6 mph 38.0 mph N/A   Mostly Cloudy
2:15 PM 35.6 °F 22.7 °F 28.4 °F 75% 29.56 in 10.0 mi West 28.8 mph 41.4 mph N/A   Mostly Cloudy
2:35 PM 35.6 °F 23.0 °F 26.6 °F 70% 29.56 in 10.0 mi WNW 27.6 mph 38.0 mph N/A   Scattered Clouds
2:55 PM 33.8 °F 19.4 °F 24.8 °F 70% 29.58 in 10.0 mi WNW 33.4 mph 39.1 mph N/A   Scattered Clouds
3:15 PM 32.0 °F 16.5 °F 23.0 °F 69% 29.59 in 10.0 mi West 35.7 mph 43.7 mph N/A   Partly Cloudy
3:35 PM 30.2 °F 14.7 °F 21.2 °F 69% 29.61 in 10.0 mi West 32.2 mph 46.0 mph N/A   Mostly Cloudy
3:55 PM 28.4 °F 12.0 °F 19.4 °F 69% 29.63 in 10.0 mi West 33.4 mph 42.6 mph N/A   Scattered Clouds
4:15 PM 26.6 °F 9.3 °F 17.6 °F 69% 29.66 in 10.0 mi West 34.5 mph 42.6 mph N/A   Clear
4:35 PM 24.8 °F 7.1 °F 15.8 °F 69% 29.67 in 10.0 mi West 33.4 mph 40.3 mph N/A   Partly Cloudy
4:55 PM 24.8 °F 6.8 °F 15.8 °F 69% 29.67 in 10.0 mi WNW 34.5 mph 40.3 mph N/A   Partly Cloudy
5:15 PM 23.0 °F 5.7 °F 15.8 °F 74% 29.68 in 10.0 mi West 28.8 mph 36.8 mph N/A   Clear
5:35 PM 23.0 °F 6.3 °F 14.0 °F 68% 29.70 in 10.0 mi West 26.5 mph 34.5 mph N/A   Clear
5:55 PM 21.2 °F 4.5 °F 14.0 °F 74% 29.73 in 10.0 mi West 24.2 mph 32.2 mph N/A   Clear
6:15 PM 19.4 °F 1.8 °F 12.2 °F 74% 29.75 in 10.0 mi West 25.3 mph 31.1 mph N/A   Clear
6:35 PM 19.4 °F 3.2 °F 12.2 °F 74% 29.76 in 10.0 mi West 20.7 mph 28.8 mph N/A   Partly Cloudy
6:55 PM 19.4 °F 2.1 °F 12.2 °F 74% 29.78 in 10.0 mi WNW 24.2 mph 29.9 mph N/A   Mostly Cloudy
7:15 PM 19.4 °F 2.5 °F 10.4 °F 68% 29.79 in 10.0 mi WNW 23.0 mph 31.1 mph N/A Snow Light Snow
7:35 PM 19.4 °F 2.5 °F 12.2 °F 74% 29.80 in 5.0 mi WNW 23.0 mph 32.2 mph N/A Snow Light Snow
7:55 PM 17.6 °F -2.5 °F 8.6 °F 68% 29.81 in 10.0 mi WNW 32.2 mph 38.0 mph N/A   Scattered Clouds
8:15 PM 17.6 °F -1.6 °F 8.6 °F 68% 29.82 in 10.0 mi WNW 28.8 mph 36.8 mph N/A   Clear
8:35 PM 17.6 °F -1.3 °F 8.6 °F 68% 29.84 in 10.0 mi WNW 27.6 mph 35.7 mph N/A   Clear
8:55 PM 15.8 °F -3.7 °F 6.8 °F 68% 29.84 in 10.0 mi WNW 27.6 mph 36.8 mph N/A   Clear
9:15 PM 15.8 °F -2.7 °F 6.8 °F 68% 29.86 in 10.0 mi NW 24.2 mph 39.1 mph N/A   Clear
9:35 PM 15.8 °F -2.7 °F 6.8 °F 68% 29.87 in 10.0 mi WNW 24.2 mph 31.1 mph N/A   Clear
9:55 PM 15.8 °F -3.1 °F 6.8 °F 68% 29.88 in 10.0 mi WNW 25.3 mph 36.8 mph N/A   Clear
10:15 PM 14.0 °F -6.5 °F 5.0 °F 67% 29.90 in 10.0 mi WNW 28.8 mph 35.7 mph N/A   Clear
10:35 PM 14.0 °F -5.1 °F 5.0 °F 67% 29.90 in 10.0 mi WNW 24.2 mph 32.2 mph N/A   Clear
10:55 PM 14.0 °F -4.7 °F 5.0 °F 67% 29.92 in 10.0 mi WNW 23.0 mph 31.1 mph N/A   Clear
11:15 PM 14.0 °F -4.7 °F 5.0 °F 67% 29.92 in 10.0 mi WNW 23.0 mph 33.4 mph N/A   Clear
11:35 PM 12.2 °F -6.3 °F 5.0 °F 73% 29.94 in 10.0 mi WNW 20.7 mph 28.8 mph N/A   Clear
11:55 PM 12.2 °F -7.5 °F 5.0 °F 73% 29.95 in 10.0 mi WNW 24.2 mph 28.8 mph N/A   Clear